• Join FlightAware (Why Join?)
  • Login
  • US Flag 
08:53AM EDT


 

Airport Tracker/Info


-or-


 

Live Flight TrackerFlight Track Log ✈ EMD26 ✈ 20-Aug-2013 ✈ KSDF - KPOF

Flight Track Log - Related Links

Times and Time Zones

All times are in EDT time to prevent confusion due to time zone crossing. See the EMD26 flight status page for this flight to view local times or setup timezone preferences in your user account.

Time Position Orientation Groundspeed Altitude Reporting Facility
EDT Latitude Longitude Course Direction KTS MPH feet Rate Location/Type
05:13AM 38.1500 -85.7500 254° West 148 170 1,600  Level Louisville TRACON
05:15AM 38.1267 -85.8081 243° Southwest 140 161 2,900 1,260 Climbing Indianapolis Center
05:16AM 38.1161 -85.8658 257° West 141 162 4,800 1,560 Climbing Indianapolis Center
05:17AM 38.1025 -85.9206 252° West 160 184 6,100 1,260 Climbing Indianapolis Center
05:18AM 38.0867 -85.9736 249° West 159 183 7,400 1,260 Climbing Indianapolis Center
05:19AM 38.0503 -86.1486 254° West  Level FlightAware Approximate
05:19AM 38.0697 -86.0253 247° West 158 182 8,700  Level Indianapolis Center
05:20AM 38.0550 -86.0828 252° West 163 188 10,000 1,260 Climbing Indianapolis Center
05:21AM 38.0414 -86.1333 251° West 157 181 11,300 960 Climbing Indianapolis Center
05:22AM 38.0250 -86.1831 247° West 152 175 12,000 360 Climbing Indianapolis Center
05:23AM 38.0089 -86.2486 253° West 184 212 12,100  Climbing Indianapolis Center
05:24AM 37.9917 -86.3206 253° West 209 241 12,100  Level Indianapolis Center
05:25AM 37.9669 -86.3950 247° West 225 259 12,100  Level Indianapolis Center
05:26AM 37.9461 -86.4683 250° West 222 255 12,100  Level Indianapolis Center
05:27AM 37.9272 -86.5442 252° West 223 257 12,100  Level Indianapolis Center
05:28AM 37.9050 -86.6189 249° West 225 259 12,100  Level Indianapolis Center
05:29AM 37.8825 -86.6928 249° West 223 257 12,100  Level Indianapolis Center
05:30AM 37.8636 -86.7683 252° West 222 255 12,100  Level Indianapolis Center
05:31AM 37.8408 -86.8433 249° West 226 260 12,100  Level Indianapolis Center
05:32AM 37.8186 -86.9178 249° West 225 259 12,100  Level Indianapolis Center
05:33AM 37.7981 -86.9919 251° West 224 258 12,100  Level Indianapolis Center
05:34AM 37.7767 -87.0658 250° West 223 257 12,100  Level Indianapolis Center
05:35AM 37.7544 -87.1400 249° West 224 258 12,100  Level Indianapolis Center
05:36AM 37.7325 -87.2172 250° West 221 254 12,100  Level Indianapolis Center
05:37AM 37.7103 -87.2925 250° West 226 260 12,100  Level Indianapolis Center
05:38AM 37.6878 -87.3661 249° West 226 260 12,100  Level Indianapolis Center
05:39AM 37.6664 -87.4406 250° West 225 259 12,100  Level Indianapolis Center
05:40AM 37.6450 -87.5164 250° West 226 260 12,100  Level Indianapolis Center
05:41AM 37.6225 -87.5903 249° West 225 259 12,100  Level Indianapolis Center
05:42AM 37.5997 -87.6647 249° West 226 260 12,100  Level Indianapolis Center
05:43AM 37.5794 -87.7389 251° West 224 258 12,100  Level Indianapolis Center
05:44AM 37.5569 -87.8122 249° West 223 257 12,100  Level Indianapolis Center
05:45AM 37.5347 -87.8872 250° West 225 259 12,100  Level Indianapolis Center
05:46AM 37.5125 -87.9603 249° West 223 257 12,100  Level Indianapolis Center
05:47AM 37.4903 -88.0353 250° West 226 260 12,100  Level Indianapolis Center
05:48AM 37.4675 -88.1086 249° West 225 259 12,100  Level Indianapolis Center
05:49AM 37.4461 -88.1825 250° West 224 258 12,100 -60 Level Indianapolis Center
05:50AM 37.4236 -88.2567 249° West 224 258 12,000 -60 Descending Indianapolis Center
05:51AM 37.4006 -88.3311 249° West 225 259 12,000  Level Indianapolis Center
05:52AM 37.3781 -88.4047 249° West 225 259 12,000 -60 Level Indianapolis Center
05:53AM 37.3608 -88.4808 254° West 225 259 11,900 -240 Descending Indianapolis Center
05:54AM 37.3442 -88.5681 257° West 232 267 11,600 -360 Descending Indianapolis Center
05:55AM 37.3283 -88.6483 256° West 236 272 11,200 -420 Descending Indianapolis Center
05:57AM 37.3092 -88.7611 258° West 235 270 10,700 -420 Descending Memphis Center
05:58AM 37.2933 -88.8422 256° West 241 277 10,300 -420 Descending Memphis Center
05:59AM 37.2778 -88.9283 257° West 241 277 9,900 -420 Descending Memphis Center
06:00AM 37.2619 -89.0094 256° West 241 277 9,500 -360 Descending Memphis Center
06:01AM 37.2442 -89.0881 254° West 241 277 9,200 -300 Descending Memphis Center
06:02AM 37.2283 -89.1717 257° West 241 277 8,900 -360 Descending Memphis Center
06:03AM 37.2122 -89.2472 255° West 241 277 8,500 -480 Descending Memphis Center
06:04AM 37.1964 -89.3283 256° West 241 277 8,000 -420 Descending Memphis Center
06:05AM 37.1803 -89.4092 256° West 241 277 7,700 -360 Descending Memphis Center
06:06AM 37.1642 -89.4875 256° West 241 277 7,300 -420 Descending Memphis Center
06:07AM 37.1461 -89.5711 255° West 241 277 6,900 -540 Descending Memphis Center
06:08AM 37.1300 -89.6492 256° West 241 277 6,300 -660 Descending Memphis Center
06:09AM 37.1136 -89.7300 256° West 241 277 5,600 -660 Descending Memphis Center
06:10AM 37.0975 -89.8108 256° West 241 277 5,000 -660 Descending Memphis Center
06:11AM 37.0811 -89.8864 255° West 241 277 4,300 -720 Descending Memphis Center
06:12AM 37.0625 -89.9694 254° West 241 277 3,600 -660 Descending Memphis Center
06:13AM 37.0503 -90.0425 258° West 241 277 3,000 -600 Descending Memphis Center
06:14AM 37.0297 -90.1203 252° West 241 277 2,500 -300 Descending Memphis Center
06:15AM 37.0172 -90.1933 258° West 228 262 2,500  Level Memphis Center
06:16AM 37.0047 -90.2608 257° West 212 244 2,500  Level Memphis Center
06:17AM 36.9881 -90.3231 251° West 212 244 2,500  Level Memphis Center
06:18AM 36.9547 -90.3206 177° South 149 171 2,500 -360 Level Memphis Center
06:21AM 36.8214 -90.3283 183° South 230 265 1,200 -360 Descending Memphis Center
06:22AM 36.7672 -90.3439 193° South 230 265 1,100 -120 Descending Memphis Center